The Terminator
24 Feb 2019

     
Click on your name for more detailed race data

Page 1 of 8 (380 items)
PosBib NoNameGun TimeChip TimeCategoryCat PosGenderGen PosClubPace
27158Rebecca HANNAH1:32:34.11:32:30.9FSen1Female1 7.8 m/hr
112384Georgia THOMAS1:49:11.21:48:48.8FSen2Female10 6.6 m/hr
117133Serena FRANKLIN1:49:45.61:49:41.5FSen3Female12SHREWTON RUNNING CLUB 6.6 m/hr
149299Lauren PESTANA1:54:40.41:54:33.2FSen4Female19 6.3 m/hr
155358Katie SMITH1:55:24.71:55:13.1FSen5Female23WHITE HORSE HARRIERS 6.2 m/hr
16382Lucy COLLINS1:57:20.91:57:16.1FSen6Female25GREAT CHEVERELL CIRCUITS 6.1 m/hr
170120Amy FLAXMAN1:58:17.11:57:57.2FSen7Female29RUN WALLINGFORD 6.1 m/hr
189294Lucy PAYNE2:01:27.72:01:12.4FSen8Female37 5.9 m/hr
193280Katie NORTH2:02:13.52:01:55.1FSen9Female38 5.9 m/hr
215305Magdalena PINNEY2:04:20.12:04:08.4FSen10Female46WHITE HORSE HARRIERS 5.8 m/hr
218355Becks SMALLMAN2:04:35.42:04:30.7FSen11Female48GREAT CHEVERELL CIRCUITS 5.8 m/hr
254367Daisy STODDART2:13:02.92:12:40.5FSen12Female61 5.4 m/hr
257441Beca YOUNG2:14:01.62:13:45.1FSen13Female63 5.4 m/hr
300250Cal MAW2:25:11.22:24:51.9FSen14Female84 5.0 m/hr
302309Emma POTTER2:26:22.12:26:07.8FSen15Female85MUDDY RUNNERS 4.9 m/hr
308426Roushka WESTALL2:27:35.82:27:11.5FSen16Female88PEWSEY VALE RC 4.9 m/hr
31864Louisa BUTLER2:28:55.52:28:26.8FSen17Female93DEVIZES RUNNING CLUB 4.8 m/hr
319110Sophie EDWARDS2:28:56.02:28:27.1FSen18Female94DEVIZES RUNNING CLUB 4.8 m/hr
321109Ramona EDWARDS2:29:08.32:28:42.9FSen19Female95 4.8 m/hr
324176Caroline HIBBERD2:30:33.52:30:13.5FSen20Female98 4.8 m/hr
349297Michelle PERRING2:40:59.42:40:34.8FSen21Female112 4.5 m/hr
353227Lizzi LEACH2:43:53.42:43:36.0FSen22Female115CHESTERTON TRAIL RUNNERS 4.4 m/hr
354399Keziah TRUMP2:44:51.52:44:25.4FSen23Female116 4.4 m/hr
377253Hayriye MAZZOTTA3:18:11.33:17:48.0FSen24Female129HIGHWORTH RC 3.6 m/hr
37428Jessica WHITE1:35:18.31:35:13.1FVet351Female2MARLBOROUGH RUNNING CLUB 7.6 m/hr
41318Victoria RATCLIFFE1:36:07.51:36:04.5FVet352Female3SOMER AC 7.5 m/hr
61383Ruth THOM1:39:34.41:39:31.9FVet353Female5CITY OF SALISBURY AC & RC 7.2 m/hr
6724Anne-Marie BAYLISS1:40:48.41:40:45.2FVet354Female6 7.1 m/hr
92379Geri TAYLOR1:45:51.01:45:45.8FVet355Female8SWINDON STRIDERS 6.8 m/hr
99191Charlotte INGRAM1:46:40.21:46:37.6FVet356Female9CITY OF SALISBURY AC & RC 6.7 m/hr
129139Alice GATES1:51:49.41:51:36.0FVet357Female13 6.4 m/hr
14341Catherine BODY1:54:00.11:53:49.3FVet358Female17DEVIZES RUNNING CLUB 6.3 m/hr
145416Gabby WALKER1:54:27.21:54:21.4FVet359Female18 6.3 m/hr
15270Melanie CASSIDY1:55:02.81:54:39.3FVet3510Female21WITNEY ROAD RUNNERS 6.3 m/hr
15467Amy CAMERON1:55:14.01:54:59.9FVet3511Female22SWINDON STRIDERS 6.2 m/hr
159117Emilie FIDLER1:56:57.41:56:39.1FVet3512Female24CHESTERTON TRAIL RUNNERS 6.2 m/hr
165380Rebecca TAYLOR1:57:24.41:57:13.7FVet3513Female26SWINDON STRIDERS 6.1 m/hr
167124Luisa FOGARTY1:57:32.61:57:21.4FVet3514Female28 6.1 m/hr
181186Emma HOLTON1:59:45.61:59:25.8FVet3515Female33VERWOOD RUNNERS 6.0 m/hr
188122Lynne FLYNN2:01:27.72:01:17.5FVet3516Female36MUDDY RUNNERS 5.9 m/hr
203136Lucy FRY2:03:23.62:03:04.1FVet3517Female42TRAIL RUNNING ASSOCIATION 5.8 m/hr
208237Frances MACHIN2:03:50.12:03:33.6FVet3518Female44ROYAL WOOTTON BASSETT HOUNDS RC 5.8 m/hr
210164Tamzyn HARRIS2:04:04.82:03:50.9FVet3519Female45SWINDON STRIDERS 5.8 m/hr
219225Claire LANGLEY2:04:38.22:04:31.4FVet3520Female49PEWSEY VALE RC 5.8 m/hr
221393Sarah TILLING2:05:03.22:04:56.4FVet3521Female50SWINDON STRIDERS 5.8 m/hr
23874Elaine CHAPMAN2:08:46.42:08:30.4FVet3522Female58RUNNING SOMEWHERE ELSE 5.6 m/hr
24535Rachel BEVINGTON2:10:10.52:09:46.5FVet3523Female60 5.5 m/hr
255329Sarah ROBERTSON2:13:08.02:12:57.3FVet3524Female62 5.4 m/hr
262346Lucy SCATTERGOOD2:15:40.92:15:21.4FVet3525Female65 5.3 m/hr
26639Charlotte BLOMFIELD2:15:57.62:15:35.6FVet3526Female67 5.3 m/hr
Page 1 of 8 (380 items)
   

fb